Pattonville Airfield

EDTQ · Baden-Württemberg, Germania

Storia di METAR EDTQ · Pattonville Airport

Di seguito sono riportati i METAR degli ultimi giorni. Seleziona un anno per sfogliare i METAR più vecchi, dall'anno 2007 in poi.

4 dicembre 2022

Tempo Codice Tempo metereologico Temp. Vista Base nuvolosa Vento METAR/SPECI
03:20
I
1 °C 10 km+ 700 ft 080° 080° 5 kt METAR EDDS 040220Z AUTO 08005KT 050V110 9999 OVC007 01/M01 Q1012
02:50
I
1 °C 10 km+ 700 ft 080° 080° 5 kt METAR EDDS 040150Z AUTO 08005KT 050V130 9999 OVC007 01/M01 Q1012
02:20
I
1 °C 10 km+ 800 ft 080° 080° 7 kt METAR EDDS 040120Z AUTO 08007KT 9999 OVC008 01/M01 Q1012
01:50
I
1 °C 10 km+ 800 ft 070° 070° 7 kt METAR EDDS 040050Z AUTO 07007KT 9999 OVC008 01/M01 Q1012
01:20
I
1 °C 9 km 700 ft 060° 060° 6 kt METAR EDDS 040020Z AUTO 06006KT 9000 OVC007 01/M01 Q1013
00:50
I
1 °C 8 km 700 ft 070° 070° 5 kt METAR EDDS 032350Z AUTO 07005KT 040V100 8000 OVC007 01/M01 Q1013
00:20
I
1 °C 10 km+ 900 ft 080° 080° 7 kt METAR EDDS 032320Z AUTO 08007KT 9999 OVC009 01/M01 Q1013

3 dicembre 2022

Tempo Codice Tempo metereologico Temp. Vista Base nuvolosa Vento METAR/SPECI
23:50
I
1 °C 10 km+ 900 ft 080° 080° 6 kt METAR EDDS 032250Z AUTO 08006KT 050V110 9999 OVC009 01/M01 Q1013
23:20
I
1 °C 10 km+ 900 ft 080° 080° 7 kt METAR EDDS 032220Z AUTO 08007KT 9999 OVC009 01/M01 Q1013
22:50
I
1 °C 10 km+ 900 ft 080° 080° 7 kt METAR EDDS 032150Z AUTO 08007KT 9999 OVC009 01/M01 Q1013
22:20
I
1 °C 10 km+ 800 ft 080° 080° 7 kt METAR EDDS 032120Z AUTO 08007KT 060V130 9999 OVC008 01/M01 Q1014 NOSIG
21:50
I
1 °C 10 km+ 800 ft 080° 080° 9 kt METAR EDDS 032050Z AUTO 08009KT 050V110 9999 BKN008 01/M01 Q1014 NOSIG
21:20
I
1 °C 10 km+ 800 ft 080° 080° 8 kt METAR EDDS 032020Z AUTO 08008KT 9999 OVC008 01/M01 Q1014 NOSIG
20:50
I
1 °C 10 km+ 800 ft 090° 090° 9 kt METAR EDDS 031950Z AUTO 09009KT 060V130 9999 OVC008 01/M01 Q1014
20:20
I
1 °C 10 km+ 800 ft 080° 080° 9 kt METAR EDDS 031920Z AUTO 08009KT 060V120 9999 OVC008 01/M01 Q1014 NOSIG
19:50
I
1 °C 10 km+ 800 ft 090° 090° 7 kt METAR EDDS 031850Z AUTO 09007KT 060V120 9999 OVC008 01/M01 Q1014 NOSIG
19:20
I
1 °C 10 km+ 700 ft 080° 080° 8 kt METAR EDDS 031820Z AUTO 08008KT 9999 OVC007 01/M01 Q1014 NOSIG
18:50
I
1 °C 10 km+ 700 ft 070° 070° 8 kt METAR EDDS 031750Z AUTO 07008KT 9999 OVC007 01/M01 Q1014 NOSIG
18:20
I
1 °C 10 km+ 800 ft 090° 090° 5 kt METAR EDDS 031720Z AUTO 09005KT 060V130 9999 OVC008 01/M01 Q1014 NOSIG
17:50
I
1 °C 10 km+ 800 ft 080° 080° 6 kt METAR EDDS 031650Z AUTO 08006KT 9999 OVC008 01/M01 Q1014 NOSIG
17:20
I
1 °C 10 km+ 800 ft 070° 070° 7 kt METAR EDDS 031620Z AUTO 07007KT 050V130 9999 OVC008 01/M01 Q1015 NOSIG
16:50
I
1 °C 10 km+ 800 ft 060° 060° 7 kt METAR EDDS 031550Z AUTO 06007KT 9999 OVC008 01/M01 Q1015 NOSIG
16:20
I
1 °C 10 km+ 800 ft 060° 060° 9 kt METAR EDDS 031520Z AUTO 06009KT 9999 OVC008 01/M01 Q1015
15:50
I
1 °C 10 km+ 800 ft 090° 090° 7 kt METAR EDDS 031450Z AUTO 09007KT 060V120 9999 OVC008 01/M01 Q1015 NOSIG
15:20
I
1 °C 10 km+ 800 ft 080° 080° 6 kt METAR EDDS 031420Z AUTO 08006KT 9999 OVC008 01/M00 Q1014 NOSIG
14:50
I
1 °C 10 km+ 900 ft 070° 070° 9 kt METAR EDDS 031350Z AUTO 07009KT 9999 OVC009 01/M01 Q1015 NOSIG
14:20
I
1 °C 10 km+ 900 ft 070° 070° 8 kt METAR EDDS 031320Z AUTO 07008KT 9999 OVC009 01/M00 Q1015 NOSIG
13:50
I
1 °C 10 km+ 900 ft 060° 060° 9 kt METAR EDDS 031250Z AUTO 06009KT 9999 OVC009 01/M00 Q1015 NOSIG
13:20
I
2 °C 10 km+ 900 ft 070° 070° 7 kt METAR EDDS 031220Z AUTO 07007KT 040V100 9999 OVC009 02/M00 Q1015 NOSIG
12:50
I
2 °C 10 km+ 900 ft 080° 080° 6 kt METAR EDDS 031150Z AUTO 08006KT 050V140 9999 OVC009 02/M00 Q1015 NOSIG
12:20
I
2 °C 10 km+ 900 ft 070° 070° 7 kt METAR EDDS 031120Z AUTO 07007KT 9999 OVC009 02/M00 Q1016 NOSIG
11:50
M
2 °C 10 km+ 1.000 ft 070° 070° 7 kt METAR EDDS 031050Z AUTO 07007KT 9999 OVC010 02/M00 Q1016 NOSIG
11:20
M
2 °C 10 km+ 1.000 ft 080° 080° 8 kt METAR EDDS 031020Z AUTO 08008KT 9999 OVC010 02/M00 Q1016 NOSIG
10:50
M
2 °C 10 km+ 1.100 ft 070° 070° 8 kt METAR EDDS 030950Z AUTO 07008KT 9999 OVC011 02/00 Q1016 NOSIG
10:20
M
2 °C 8 km 1.200 ft 080° 080° 8 kt METAR EDDS 030920Z AUTO 08008KT 8000 FEW007 OVC012 02/00 Q1016 NOSIG
09:50
M
2 °C 10 km+ 1.400 ft 080° 080° 8 kt METAR EDDS 030850Z AUTO 08008KT 9999 FEW008 OVC014 02/01 Q1016 NOSIG
09:20
M
2 °C 10 km+ 1.500 ft 090° 090° 6 kt METAR EDDS 030820Z AUTO 09006KT 050V120 9999 FEW007 OVC015 02/01 Q1016
08:50
M
2 °C 9 km 1.600 ft 080° 080° 6 kt METAR EDDS 030750Z AUTO 08006KT 9000 BKN016 02/01 Q1016 NOSIG
08:20
M
2 °C 10 km+ 1.600 ft 070° 070° 4 kt METAR EDDS 030720Z AUTO 07004KT 050V110 9999 OVC016 02/01 Q1016 NOSIG
07:50
M
2 °C 9 km 1.700 ft Var Var 2 kt METAR EDDS 030650Z AUTO VRB02KT 9000 OVC017 02/01 Q1017 NOSIG
07:20
M
2 °C 9 km 1.800 ft Var Var 2 kt METAR EDDS 030620Z AUTO VRB02KT 9000 OVC018 02/01 Q1016 NOSIG
06:50
M
2 °C 9 km 1.800 ft 060° 060° 3 kt METAR EDDS 030550Z AUTO 06003KT 9000 OVC018 02/01 Q1016 NOSIG
06:20
M
2 °C 7 km 1.900 ft 050° 050° 2 kt METAR EDDS 030520Z AUTO 05002KT 7000 OVC019 02/01 Q1016 TEMPO 4000 BR OVC012
05:50
M
2 °C 8 km 1.800 ft Var Var 1 kt METAR EDDS 030450Z AUTO VRB01KT 8000 OVC018 02/01 Q1016
05:20
M
2 °C 7 km 2.000 ft 080° 080° 3 kt METAR EDDS 030420Z AUTO 08003KT 050V160 7000 OVC020 02/01 Q1017
04:50
M
2 °C 7 km 2.000 ft Var Var 2 kt METAR EDDS 030350Z AUTO VRB02KT 7000 FEW004 OVC020 02/01 Q1017
04:20
M
2 °C 7 km 2.300 ft 090° 090° 3 kt METAR EDDS 030320Z AUTO 09003KT 7000 SCT006 SCT017 OVC023 02/01 Q1017
03:50
M
2 °C 9 km 2.500 ft Var Var 2 kt METAR EDDS 030250Z AUTO VRB02KT 9000 FEW007 SCT017 OVC025 02/01 Q1017
03:20
M
2 °C 10 km+ 1.700 ft 030° 030° 3 kt METAR EDDS 030220Z AUTO 03003KT 9999 FEW007 BKN017 OVC029 02/01 Q1017
02:50
M
2 °C 10 km+ 1.700 ft 040° 040° 3 kt METAR EDDS 030150Z AUTO 04003KT 9999 BKN017 OVC031 02/00 Q1017
02:20
M
1 °C 10 km+ 1.600 ft 050° 050° 2 kt METAR EDDS 030120Z AUTO 05002KT 9999 BKN016 OVC031 01/00 Q1017
01:50
M
1 °C 8 km 1.600 ft 030° 030° 3 kt METAR EDDS 030050Z AUTO 03003KT 350V060 8000 BKN016 01/00 Q1017
01:20
M
1 °C 7 km 1.600 ft 070° 070° 2 kt METAR EDDS 030020Z AUTO 07002KT 7000 OVC016 01/01 Q1017
00:50
M
1 °C 7 km 1.700 ft 070° 070° 2 kt METAR EDDS 022350Z AUTO 07002KT 7000 BKN017 01/01 Q1017
00:20
M
1 °C 7 km 1.800 ft 070° 070° 3 kt METAR EDDS 022320Z AUTO 07003KT 7000 FEW003 BKN018 01/01 Q1017

2 dicembre 2022

Tempo Codice Tempo metereologico Temp. Vista Base nuvolosa Vento METAR/SPECI
23:50
M
2 °C 7 km 2.000 ft 070° 070° 4 kt METAR EDDS 022250Z AUTO 07004KT 7000 SCT003 BKN020 02/01 Q1017
23:20
L
2 °C 7 km 400 ft 060° 060° 4 kt METAR EDDS 022220Z AUTO 06004KT 7000 BKN004 OVC020 02/02 Q1017
22:50
I
2 °C 9 km 500 ft 090° 090° 3 kt METAR EDDS 022150Z AUTO 09003KT 9000 BKN005 BKN010 OVC018 02/01 Q1017
22:20
I
2 °C 10 km+ 500 ft 080° 080° 5 kt METAR EDDS 022120Z AUTO 08005KT 9999 BKN005 BKN008 OVC017 02/02 Q1017
21:50
I
2 °C 10 km+ 500 ft 060° 060° 3 kt METAR EDDS 022050Z AUTO 06003KT 9999 BKN005 02/02 Q1017 TEMPO BKN004
21:20
I
2 °C 10 km+ 600 ft 010° 010° 4 kt METAR EDDS 022020Z AUTO 01004KT 340V040 9999 OVC006 02/02 Q1017 TEMPO BKN004
20:50
I
2 °C 10 km+ 500 ft 010° 010° 3 kt METAR EDDS 021950Z AUTO 01003KT 9999 BKN005 OVC008 02/02 Q1017 TEMPO BKN004
20:20
I
2 °C 10 km+ 500 ft Var Var 2 kt METAR EDDS 021920Z AUTO VRB02KT 9999 -DZ BKN005 OVC010 02/02 Q1016 BECMG BKN004
19:50
I
2 °C 10 km+ 600 ft 350° 350° 3 kt METAR EDDS 021850Z AUTO 35003KT 290V010 9999 -DZ BKN006 02/02 Q1016 NOSIG
19:20
I
2 °C 10 km+ 600 ft 330° 330° 3 kt METAR EDDS 021820Z AUTO 33003KT 310V010 9999 -DZ BKN006 BKN013 02/02 Q1017 NOSIG
18:50
I
2 °C 10 km+ 600 ft Var Var 2 kt METAR EDDS 021750Z AUTO VRB02KT 9999 -RADZ BKN006 02/02 Q1017 NOSIG
18:20
I
2 °C 10 km+ 600 ft Var Var 2 kt METAR EDDS 021720Z AUTO VRB02KT 9999 -RADZ BKN006 02/02 Q1017
17:50
I
2 °C 10 km+ 700 ft Var Var 2 kt METAR EDDS 021650Z AUTO VRB02KT 9999 -RADZ FEW001 BKN007 BKN018 02/02 Q1017 NOSIG
17:20
I
2 °C 10 km+ 700 ft 340° 340° 3 kt METAR EDDS 021620Z AUTO 34003KT 290V020 9999 -DZ BKN007 02/02 Q1016 NOSIG
16:50
I
2 °C 10 km+ 700 ft Var Var 2 kt METAR EDDS 021550Z AUTO VRB02KT 9999 -DZ BKN007 BKN018 02/02 Q1016 NOSIG
16:20
M
2 °C 8 km 1.200 ft 320° 320° 3 kt METAR EDDS 021520Z AUTO 32003KT 290V350 8000 -RADZ FEW005 BKN012 OVC019 02/02 Q1016 TEMPO BKN005
15:50
I
3 °C 10 km+ 800 ft Var Var 2 kt METAR EDDS 021450Z AUTO VRB02KT 9999 -DZ FEW005 BKN008 OVC016 03/02 Q1016 NOSIG
15:20
I
3 °C 10 km+ 700 ft 330° 330° 4 kt METAR EDDS 021420Z AUTO 33004KT 310V020 9999 -DZ BKN007 BKN012 OVC017 03/02 Q1016 NOSIG
14:50
I
3 °C 8 km 700 ft 320° 320° 4 kt METAR EDDS 021350Z AUTO 32004KT 8000 -DZ BKN007 OVC012 03/02 Q1016 TEMPO SCT007 OVC012
14:20
M
3 °C 8 km 1.200 ft 330° 330° 3 kt METAR EDDS 021320Z AUTO 33003KT 290V350 8000 -DZ SCT006 OVC012 03/02 Q1016 BKN006
13:50
M
3 °C 6 km 1.100 ft 320° 320° 4 kt METAR EDDS 021250Z AUTO 32004KT 6000 -DZ SCT007 OVC011 03/02 Q1016 REDZ TEMPO BKN007
13:20
I
3 °C 4,5 km 600 ft 320° 320° 4 kt METAR EDDS 021220Z AUTO 32004KT 4500 DZ BR BKN006 OVC011 03/02 Q1017 TEMPO 5000 NSW
12:50
I
3 °C 6 km 900 ft 330° 330° 4 kt METAR EDDS 021150Z AUTO 33004KT 6000 -DZ SCT006 BKN009 OVC014 03/02 Q1017 TEMPO 3000 -DZ
12:20
I
3 °C 5 km 700 ft 320° 320° 5 kt METAR EDDS 021120Z AUTO 32005KT 5000 -DZ BR OVC007 03/02 Q1017 REDZ TEMPO 4000 -DZ
11:50
I
3 °C 4,6 km 700 ft 330° 330° 5 kt METAR EDDS 021050Z AUTO 33005KT 4600 -DZ BR OVC007 03/02 Q1017 NOSIG
11:20
I
3 °C 5 km 700 ft 330° 330° 5 kt METAR EDDS 021020Z AUTO 33005KT 5000 -DZ BR OVC007 03/02 Q1017
10:50
I
3 °C 5 km 600 ft 330° 330° 4 kt METAR EDDS 020950Z AUTO 33004KT 290V360 5000 -DZ BR BKN006 OVC009 03/02 Q1018 TEMPO 3000 -DZ BKN004
10:20
I
3 °C 5 km 600 ft 320° 320° 4 kt METAR EDDS 020920Z AUTO 32004KT 5000 -DZ BR BKN006 OVC009 03/02 Q1018 REDZ TEMPO 3000 -DZ BKN004
09:50
I
3 °C 3,7 km 500 ft 310° 310° 4 kt METAR EDDS 020850Z AUTO 31004KT 3700 DZ BR BKN005 03/02 Q1018 NOSIG
09:20
I
3 °C 5 km 500 ft 310° 310° 4 kt METAR EDDS 020820Z AUTO 31004KT 290V350 5000 -DZ BR BKN005 OVC024 03/02 Q1018 TEMPO 3000 -DZ
08:50
I
3 °C 8 km 500 ft 320° 320° 5 kt METAR EDDS 020750Z AUTO 32005KT 8000 BKN005 OVC012 OVC026 03/02 Q1018 NOSIG
08:20
I
3 °C 8 km 500 ft 320° 320° 3 kt METAR EDDS 020720Z AUTO 32003KT 8000 BKN005 BKN021 03/02 Q1018 TEMPO 3000 -DZ
07:50
I
3 °C 7 km 500 ft 330° 330° 3 kt METAR EDDS 020650Z AUTO 33003KT 270V010 7000 BKN005 BKN010 OVC018 03/02 Q1018 TEMPO 3000 -DZ
07:20
L
3 °C 6 km 400 ft 330° 330° 4 kt METAR EDDS 020620Z AUTO 33004KT 6000 BKN004 BKN017 03/02 Q1018 TEMPO 4000 -DZ
06:50
L
3 °C 7 km 400 ft 340° 340° 4 kt METAR EDDS 020550Z AUTO 34004KT 300V010 7000 -DZ BKN004 BKN017 03/02 Q1018 NOSIG
06:20
I
3 °C 7 km 500 ft 330° 330° 5 kt METAR EDDS 020520Z AUTO 33005KT 7000 BKN005 BKN017 03/02 Q1018 TEMPO 4000 -DZ BKN004
05:50
I
3 °C 7 km 500 ft 350° 350° 4 kt METAR EDDS 020450Z AUTO 35004KT 310V020 7000 BKN005 BKN015 OVC033 03/02 Q1018
05:20
M
3 °C 8 km 2.600 ft 330° 330° 7 kt METAR EDDS 020420Z AUTO 33007KT 8000 FEW005 BKN026 BKN034 03/02 Q1018
04:50
M
3 °C 7 km 1.800 ft 330° 330° 6 kt METAR EDDS 020350Z AUTO 33006KT 7000 FEW005 BKN018 OVC024 03/02 Q1019
04:20
I
3 °C 8 km 600 ft 340° 340° 5 kt METAR EDDS 020320Z AUTO 34005KT 310V020 8000 BKN006 BKN009 OVC014 03/02 Q1019
03:50
I
3 °C 9 km 600 ft 340° 340° 5 kt METAR EDDS 020250Z AUTO 34005KT 9000 BKN006 BKN024 OVC029 03/02 Q1019
03:20
I
3 °C 9 km 600 ft 350° 350° 5 kt METAR EDDS 020220Z AUTO 35005KT 9000 BKN006 OVC021 OVC030 03/02 Q1019
02:50
I
3 °C 9 km 600 ft 320° 320° 7 kt METAR EDDS 020150Z AUTO 32007KT 9000 BKN006 03/02 Q1019
02:20
I
3 °C 10 km+ 600 ft 340° 340° 7 kt METAR EDDS 020120Z AUTO 34007KT 9999 BKN006 BKN010 OVC018 03/02 Q1019
01:50
M
3 °C 10 km+ 1.100 ft 330° 330° 6 kt METAR EDDS 020050Z AUTO 33006KT 310V010 9999 SCT007 BKN011 OVC017 03/02 Q1019
01:20
M
3 °C 10 km+ 1.200 ft 340° 340° 6 kt METAR EDDS 020020Z AUTO 34006KT 9999 OVC012 03/02 Q1020
00:50
M
3 °C 10 km+ 1.400 ft 330° 330° 4 kt METAR EDDS 012350Z AUTO 33004KT 300V010 9999 FEW008 BKN014 OVC040 03/02 Q1020
00:20
M
3 °C 10 km+ 1.500 ft 340° 340° 3 kt METAR EDDS 012320Z AUTO 34003KT 280V010 9999 BKN015 BKN033 OVC041 03/02 Q1020

1 dicembre 2022

Tempo Codice Tempo metereologico Temp. Vista Base nuvolosa Vento METAR/SPECI
23:50
V
3 °C 10 km+ 3.200 ft 340° 340° 5 kt METAR EDDS 012250Z AUTO 34005KT 9999 FEW006 BKN032 BKN044 03/02 Q1020
23:20
M
3 °C 10 km+ 1.500 ft 330° 330° 4 kt METAR EDDS 012220Z AUTO 33004KT 300V010 9999 SCT006 OVC015 03/02 Q1020
22:50
M
3 °C 10 km+ 1.400 ft 340° 340° 6 kt METAR EDDS 012150Z AUTO 34006KT 310V010 9999 FEW007 OVC014 03/02 Q1020
22:20
M
3 °C 10 km+ 1.400 ft 350° 350° 5 kt METAR EDDS 012120Z AUTO 35005KT 320V020 9999 -DZ BKN014 03/02 Q1021
21:50
M
3 °C 10 km+ 1.400 ft 340° 340° 5 kt METAR EDDS 012050Z AUTO 34005KT 290V360 9999 BKN014 03/02 Q1021 NOSIG
21:20
M
3 °C 10 km+ 1.400 ft 340° 340° 4 kt METAR EDDS 012020Z AUTO 34004KT 310V030 9999 FEW007 OVC014 03/02 Q1021 NOSIG
20:50
M
3 °C 10 km+ 1.400 ft 350° 350° 5 kt METAR EDDS 011950Z AUTO 35005KT 9999 BKN014 03/02 Q1021 NOSIG
20:20
M
3 °C 10 km+ 1.400 ft 350° 350° 3 kt METAR EDDS 011920Z AUTO 35003KT 310V040 9999 FEW009 BKN014 OVC021 03/02 Q1021 TEMPO BKN009
19:50
M
3 °C 10 km+ 1.500 ft 330° 330° 4 kt METAR EDDS 011850Z AUTO 33004KT 300V020 9999 BKN015 OVC020 03/02 Q1021 BECMG BKN012
19:20
M
3 °C 10 km+ 1.500 ft 350° 350° 5 kt METAR EDDS 011820Z AUTO 35005KT 310V030 9999 BKN015 OVC019 03/02 Q1021 BECMG BKN012
18:50
M
3 °C 10 km+ 1.600 ft 340° 340° 4 kt METAR EDDS 011750Z AUTO 34004KT 290V020 9999 OVC016 03/02 Q1021 BECMG BKN012
18:20
M
3 °C 10 km+ 1.800 ft 330° 330° 6 kt METAR EDDS 011720Z AUTO 33006KT 9999 OVC018 03/01 Q1021 NOSIG
17:50
M
3 °C 10 km+ 1.600 ft 330° 330° 6 kt METAR EDDS 011650Z AUTO 33006KT 9999 BKN016 03/01 Q1021
17:20
M
3 °C 10 km+ 1.400 ft 340° 340° 4 kt METAR EDDS 011620Z AUTO 34004KT 9999 -RA BKN014 03/01 Q1021 NOSIG
16:50
M
3 °C 10 km+ 1.300 ft 340° 340° 5 kt METAR EDDS 011550Z AUTO 34005KT 310V020 9999 OVC013 03/01 Q1021 NOSIG
16:20
M
3 °C 10 km+ 1.500 ft 330° 330° 5 kt METAR EDDS 011520Z AUTO 33005KT 310V010 9999 OVC015 03/01 Q1021 NOSIG
15:50
M
3 °C 10 km+ 1.400 ft 330° 330° 7 kt METAR EDDS 011450Z AUTO 33007KT 9999 OVC014 03/01 Q1021 NOSIG
15:20
M
3 °C 10 km+ 1.400 ft 350° 350° 5 kt METAR EDDS 011420Z AUTO 35005KT 310V010 9999 OVC014 03/01 Q1021 NOSIG
14:50
M
3 °C 10 km+ 1.400 ft 350° 350° 5 kt METAR EDDS 011350Z AUTO 35005KT 290V020 9999 OVC014 03/01 Q1021 NOSIG
14:20
M
3 °C 10 km+ 1.400 ft 350° 350° 5 kt METAR EDDS 011320Z AUTO 35005KT 280V020 9999 OVC014 03/01 Q1021 BECMG BKN020
13:50
M
3 °C 10 km+ 1.300 ft 350° 350° 5 kt METAR EDDS 011250Z AUTO 35005KT 9999 OVC013 03/01 Q1021 NOSIG
13:20
M
3 °C 10 km+ 1.100 ft 350° 350° 6 kt METAR EDDS 011220Z AUTO 35006KT 9999 OVC011 03/00 Q1021 NOSIG
12:50
M
3 °C 10 km+ 1.200 ft 340° 340° 6 kt METAR EDDS 011150Z AUTO 34006KT 310V010 9999 OVC012 03/00 Q1021 NOSIG
12:20
M
2 °C 10 km+ 1.200 ft 340° 340° 6 kt METAR EDDS 011120Z AUTO 34006KT 310V010 9999 OVC012 02/00 Q1022 NOSIG
11:50
M
2 °C 10 km+ 1.100 ft 340° 340° 5 kt METAR EDDS 011050Z AUTO 34005KT 320V030 9999 OVC011 02/00 Q1022 NOSIG
11:20
M
2 °C 10 km+ 1.200 ft 340° 340° 5 kt METAR EDDS 011020Z AUTO 34005KT 300V360 9999 OVC012 02/00 Q1022 NOSIG
10:50
M
2 °C 10 km+ 1.200 ft 350° 350° 5 kt METAR EDDS 010950Z AUTO 35005KT 300V020 9999 OVC012 02/00 Q1022 NOSIG

Noi e le terze parti seguiamo il tuo comportamento su internet con i cookie. Se continui, riteniamo che tu sia d'accordo con la nostra Politica sui cookie.